createdAt,value
2022-08-08T00:00:53.363Z,12.13
2022-08-08T00:01:08.544Z,12.11
2022-08-08T00:02:03.411Z,12.08
2022-08-08T00:02:48.978Z,12.05
2022-08-08T00:03:48.714Z,12.00
2022-08-08T00:04:49.000Z,11.96
2022-08-08T00:06:03.392Z,11.91
2022-08-08T00:06:48.665Z,11.87
2022-08-08T00:07:48.602Z,11.83
2022-08-08T00:08:49.119Z,11.80
2022-08-08T00:09:48.590Z,11.76
2022-08-08T00:10:49.749Z,11.72
2022-08-08T00:12:07.428Z,11.68
2022-08-08T00:12:56.866Z,11.63
2022-08-08T00:14:17.528Z,11.59
2022-08-08T00:15:03.403Z,11.54
2022-08-08T00:15:56.999Z,11.49
2022-08-08T00:16:48.499Z,11.43
2022-08-08T00:18:03.789Z,11.38
2022-08-08T00:18:48.481Z,11.36
2022-08-08T00:19:51.525Z,11.37
2022-08-08T00:20:49.535Z,11.38
2022-08-08T00:21:48.434Z,11.44
2022-08-08T00:22:48.468Z,11.51
2022-08-08T00:23:51.312Z,11.59
2022-08-08T00:24:48.385Z,11.65
2022-08-08T00:25:50.970Z,11.70
2022-08-08T00:26:48.389Z,11.75
2022-08-08T00:27:48.378Z,11.80
2022-08-08T00:28:48.375Z,11.83
2022-08-08T00:29:48.380Z,11.86
2022-08-08T00:31:00.283Z,11.88
2022-08-08T00:32:15.639Z,11.90
2022-08-08T00:32:48.310Z,11.92
2022-08-08T00:34:18.035Z,11.93
2022-08-08T00:34:48.255Z,11.93
2022-08-08T00:35:48.848Z,11.92
2022-08-08T00:36:51.640Z,11.91
2022-08-08T00:38:01.616Z,11.89
2022-08-08T00:38:52.107Z,11.86
2022-08-08T00:41:06.863Z,11.82
2022-08-08T00:41:14.778Z,11.77
2022-08-08T00:42:07.890Z,11.74
2022-08-08T00:42:48.203Z,11.71
2022-08-08T00:43:58.894Z,11.68
2022-08-08T00:44:48.150Z,11.64
2022-08-08T00:45:48.209Z,11.59
2022-08-08T00:46:57.991Z,11.54
2022-08-08T00:48:05.261Z,11.50
2022-08-08T00:48:59.236Z,11.45
2022-08-08T00:49:50.556Z,11.39
2022-08-08T00:50:52.334Z,11.34
2022-08-08T00:51:48.046Z,11.28
2022-08-08T00:52:48.740Z,11.22
2022-08-08T00:54:04.184Z,11.18
2022-08-08T00:54:48.009Z,11.16
2022-08-08T00:55:52.838Z,11.13
2022-08-08T00:56:48.021Z,11.09
2022-08-08T00:57:57.079Z,11.03
2022-08-08T00:58:54.689Z,11.00
2022-08-08T00:59:47.947Z,10.97
2022-08-08T01:00:50.678Z,10.94
2022-08-08T01:01:47.975Z,10.92
2022-08-08T01:04:01.089Z,10.90
2022-08-08T01:04:09.052Z,10.89
2022-08-08T01:04:47.846Z,10.88
2022-08-08T01:05:59.213Z,10.89
2022-08-08T01:06:48.127Z,10.89
2022-08-08T01:07:55.255Z,10.88
2022-08-08T01:08:51.909Z,10.89
2022-08-08T01:09:48.639Z,10.89
2022-08-08T01:10:50.991Z,10.90
2022-08-08T01:11:48.437Z,10.90
2022-08-08T01:12:47.756Z,10.90
2022-08-08T01:13:52.867Z,10.88
2022-08-08T01:14:54.028Z,10.84
2022-08-08T01:15:54.165Z,10.79
2022-08-08T01:16:47.713Z,10.76
2022-08-08T01:17:53.897Z,10.74
2022-08-08T01:18:53.655Z,10.73
2022-08-08T01:20:02.406Z,10.73
2022-08-08T01:20:47.670Z,10.72
2022-08-08T01:22:12.972Z,10.70
2022-08-08T01:22:47.629Z,10.67
2022-08-08T01:24:03.238Z,10.65
2022-08-08T01:24:50.781Z,10.62
2022-08-08T01:25:47.608Z,10.59
2022-08-08T01:26:48.159Z,10.55
2022-08-08T01:27:47.570Z,10.53
2022-08-08T01:28:47.548Z,10.52
2022-08-08T01:29:59.337Z,10.53
2022-08-08T01:30:47.536Z,10.53
2022-08-08T01:32:13.483Z,10.52
2022-08-08T01:32:47.503Z,10.49
2022-08-08T01:34:00.059Z,10.47
2022-08-08T01:34:47.451Z,10.44
2022-08-08T01:35:47.443Z,10.41
2022-08-08T01:36:48.554Z,10.40
2022-08-08T01:37:57.224Z,10.38
2022-08-08T01:38:47.434Z,10.36
2022-08-08T01:39:47.455Z,10.34
2022-08-08T01:40:47.403Z,10.33
2022-08-08T01:41:47.395Z,10.35
2022-08-08T01:42:47.387Z,10.37
2022-08-08T01:43:47.360Z,10.38
2022-08-08T01:44:50.387Z,10.39
2022-08-08T01:45:54.303Z,10.37
2022-08-08T01:46:52.179Z,10.34
2022-08-08T01:48:16.315Z,10.33
2022-08-08T01:48:48.199Z,10.35
2022-08-08T01:49:47.279Z,10.37
2022-08-08T01:50:48.977Z,10.37
2022-08-08T01:52:04.943Z,10.39
2022-08-08T01:54:20.141Z,10.44
2022-08-08T01:56:27.061Z,10.50
2022-08-08T01:56:37.384Z,10.56
2022-08-08T01:56:47.302Z,10.59
2022-08-08T01:58:10.959Z,10.60
2022-08-08T01:58:46.563Z,10.59
2022-08-08T02:00:01.566Z,10.58
2022-08-08T02:00:48.567Z,10.57
2022-08-08T02:01:54.990Z,10.57
2022-08-08T02:02:45.389Z,10.58
2022-08-08T02:03:55.379Z,10.56
2022-08-08T02:04:45.092Z,10.54
2022-08-08T02:05:55.974Z,10.54
2022-08-08T02:06:45.019Z,10.56
2022-08-08T02:07:48.906Z,10.59
2022-08-08T02:08:47.053Z,10.61
2022-08-08T02:10:04.164Z,10.61
2022-08-08T02:10:46.019Z,10.59
2022-08-08T02:11:52.680Z,10.55
2022-08-08T02:12:44.962Z,10.50
2022-08-08T02:13:53.623Z,10.44
2022-08-08T02:14:49.899Z,10.38
2022-08-08T02:15:44.930Z,10.33
2022-08-08T02:16:44.910Z,10.28
2022-08-08T02:17:44.871Z,10.25
2022-08-08T02:18:44.873Z,10.22
2022-08-08T02:20:07.257Z,10.18
2022-08-08T02:21:01.311Z,10.14
2022-08-08T02:21:44.819Z,10.09
2022-08-08T02:22:52.490Z,10.03
2022-08-08T02:23:44.806Z,9.99
2022-08-08T02:24:44.770Z,9.97
2022-08-08T02:25:48.783Z,9.96
2022-08-08T02:26:44.755Z,9.94
2022-08-08T02:27:44.724Z,9.91
2022-08-08T02:28:48.182Z,9.88
2022-08-08T02:29:51.643Z,9.88
2022-08-08T02:30:50.194Z,9.93
2022-08-08T02:32:01.257Z,9.96
2022-08-08T02:32:44.731Z,9.97
2022-08-08T02:34:07.993Z,9.95
2022-08-08T02:35:06.298Z,9.92
2022-08-08T02:36:04.525Z,9.88
2022-08-08T02:36:44.631Z,9.84
2022-08-08T02:37:53.077Z,9.80
2022-08-08T02:38:44.769Z,9.77
2022-08-08T02:39:58.365Z,9.74
2022-08-08T02:40:45.007Z,9.72
2022-08-08T02:42:04.424Z,9.73
2022-08-08T02:42:44.566Z,9.80
2022-08-08T02:44:37.592Z,9.88
2022-08-08T02:45:01.017Z,9.94
2022-08-08T02:45:54.114Z,9.97
2022-08-08T02:46:44.518Z,9.97
2022-08-08T02:47:46.968Z,9.96
2022-08-08T02:48:45.316Z,9.93
2022-08-08T02:49:47.467Z,9.87
2022-08-08T02:50:52.872Z,9.80
2022-08-08T02:51:55.550Z,9.75
2022-08-08T02:52:50.688Z,9.71
2022-08-08T02:53:44.414Z,9.70
2022-08-08T02:54:44.390Z,9.70
2022-08-08T02:55:44.369Z,9.71
2022-08-08T02:56:44.343Z,9.74
2022-08-08T02:57:45.569Z,9.77
2022-08-08T02:58:44.329Z,9.79
2022-08-08T03:00:01.754Z,9.79
2022-08-08T03:00:50.617Z,9.78
2022-08-08T03:01:50.255Z,9.77
2022-08-08T03:02:44.263Z,9.77
2022-08-08T03:03:46.276Z,9.78
2022-08-08T03:05:11.000Z,9.79
2022-08-08T03:05:46.392Z,9.79
2022-08-08T03:06:44.219Z,9.80
2022-08-08T03:07:57.991Z,9.82
2022-08-08T03:08:44.202Z,9.84
2022-08-08T03:09:44.181Z,9.86
2022-08-08T03:10:53.344Z,9.87
2022-08-08T03:12:01.250Z,9.88
2022-08-08T03:13:01.515Z,9.87
2022-08-08T03:15:59.339Z,9.83
2022-08-08T03:16:09.626Z,9.79
2022-08-08T03:16:34.264Z,9.76
2022-08-08T03:17:19.956Z,9.74
2022-08-08T03:18:17.053Z,9.73
2022-08-08T03:19:19.847Z,9.72
2022-08-08T03:20:17.043Z,9.72
2022-08-08T03:21:17.015Z,9.71
2022-08-08T03:22:50.936Z,9.69
2022-08-08T03:23:17.678Z,9.66
2022-08-08T03:24:16.983Z,9.64
2022-08-08T03:25:18.808Z,9.61
2022-08-08T03:26:16.954Z,9.59
2022-08-08T03:27:16.962Z,9.57
2022-08-08T03:28:19.153Z,9.53
2022-08-08T03:29:27.065Z,9.48
2022-08-08T03:30:19.260Z,9.41
2022-08-08T03:31:25.305Z,9.34
2022-08-08T03:32:16.867Z,9.28
2022-08-08T03:33:56.354Z,9.22
2022-08-08T03:34:16.861Z,9.18
2022-08-08T03:35:16.867Z,9.16
2022-08-08T03:36:20.013Z,9.13
2022-08-08T03:38:00.009Z,9.10
2022-08-08T03:39:14.360Z,9.06
2022-08-08T03:39:20.509Z,9.02
2022-08-08T03:40:29.673Z,8.98
2022-08-08T03:42:12.095Z,8.94
2022-08-08T03:42:33.488Z,8.90
2022-08-08T03:43:19.995Z,8.88
2022-08-08T03:44:16.702Z,8.85
2022-08-08T03:46:05.745Z,8.84
2022-08-08T03:46:16.690Z,8.82
2022-08-08T03:47:20.464Z,8.80
2022-08-08T03:48:21.053Z,8.78
2022-08-08T03:49:57.803Z,8.77
2022-08-08T03:50:20.140Z,8.79
2022-08-08T03:51:16.653Z,8.83
2022-08-08T03:52:16.611Z,8.90
2022-08-08T03:53:24.025Z,9.03
2022-08-08T03:54:41.236Z,9.18
2022-08-08T03:55:20.204Z,9.31
2022-08-08T03:56:31.614Z,9.41
2022-08-08T03:58:30.415Z,9.49
2022-08-08T03:58:38.553Z,9.55
2022-08-08T03:59:22.532Z,9.59
2022-08-08T04:00:18.132Z,9.62
2022-08-08T04:01:23.080Z,9.65
2022-08-08T04:02:32.980Z,9.69
2022-08-08T04:03:17.092Z,9.74
2022-08-08T04:04:16.521Z,9.79
2022-08-08T04:05:19.156Z,9.83
2022-08-08T04:06:16.421Z,9.86
2022-08-08T04:07:16.682Z,9.88
2022-08-08T04:08:23.072Z,9.89
2022-08-08T04:09:16.403Z,9.89
2022-08-08T04:10:16.376Z,9.88
2022-08-08T04:11:17.457Z,9.86
2022-08-08T04:12:16.373Z,9.83
2022-08-08T04:13:18.655Z,9.79
2022-08-08T04:14:33.317Z,9.77
2022-08-08T04:15:16.305Z,9.76
2022-08-08T04:16:18.511Z,9.74
2022-08-08T04:17:45.638Z,9.74
2022-08-08T04:18:17.191Z,9.74
2022-08-08T04:19:23.757Z,9.77
2022-08-08T04:20:16.246Z,9.81
2022-08-08T04:21:22.915Z,9.86
2022-08-08T04:22:16.619Z,9.93
2022-08-08T04:23:16.218Z,10.00
2022-08-08T04:24:28.181Z,10.06
2022-08-08T04:25:17.227Z,10.12
2022-08-08T04:26:16.179Z,10.17
2022-08-08T04:27:42.755Z,10.21
2022-08-08T04:28:40.412Z,10.24
2022-08-08T04:29:16.448Z,10.27
2022-08-08T04:30:18.055Z,10.29
2022-08-08T04:31:57.171Z,10.30
2022-08-08T04:32:30.888Z,10.30
2022-08-08T04:33:16.089Z,10.30
2022-08-08T04:34:16.051Z,10.30
2022-08-08T04:35:16.036Z,10.30
2022-08-08T04:36:16.032Z,10.29
2022-08-08T04:37:16.025Z,10.29
2022-08-08T04:38:21.167Z,10.31
2022-08-08T04:40:05.926Z,10.33
2022-08-08T04:40:17.742Z,10.37
2022-08-08T04:41:17.815Z,10.40
2022-08-08T04:42:17.168Z,10.42
2022-08-08T04:43:15.965Z,10.43
2022-08-08T04:44:15.905Z,10.45
2022-08-08T04:45:15.900Z,10.46
2022-08-08T04:46:15.902Z,10.45
2022-08-08T04:47:16.573Z,10.43
2022-08-08T04:48:15.871Z,10.41
2022-08-08T04:49:15.863Z,10.39
2022-08-08T04:50:25.276Z,10.37
2022-08-08T04:51:17.570Z,10.34
2022-08-08T04:52:15.822Z,10.31
2022-08-08T04:54:37.202Z,10.28
2022-08-08T04:54:44.984Z,10.27
2022-08-08T04:55:15.790Z,10.26
2022-08-08T04:56:15.744Z,10.24
2022-08-08T04:57:15.756Z,10.22
2022-08-08T04:58:17.552Z,10.24
2022-08-08T04:59:15.752Z,10.26
2022-08-08T05:00:19.453Z,10.28
2022-08-08T05:01:15.716Z,10.32
2022-08-08T05:02:15.729Z,10.35
2022-08-08T05:03:19.083Z,10.38
2022-08-08T05:04:15.647Z,10.43
2022-08-08T05:05:19.975Z,10.50
2022-08-08T05:06:18.405Z,10.59
2022-08-08T05:07:15.608Z,10.70
2022-08-08T05:08:15.581Z,10.83
2022-08-08T05:09:15.943Z,10.97
2022-08-08T05:10:15.578Z,11.11
2022-08-08T05:11:23.979Z,11.27
2022-08-08T05:12:34.926Z,11.44
2022-08-08T05:13:17.838Z,11.61
2022-08-08T05:14:15.505Z,11.75
2022-08-08T05:15:15.528Z,11.86
2022-08-08T05:16:52.271Z,11.93
2022-08-08T05:17:15.477Z,12.00
2022-08-08T05:18:15.465Z,12.06
2022-08-08T05:20:04.415Z,12.12
2022-08-08T05:20:19.127Z,12.20
2022-08-08T05:21:15.416Z,12.28
2022-08-08T05:22:27.618Z,12.35
2022-08-08T05:23:15.395Z,12.44
2022-08-08T05:24:15.394Z,12.53
2022-08-08T05:25:15.369Z,12.65
2022-08-08T05:26:15.368Z,12.78
2022-08-08T05:27:15.365Z,12.89
2022-08-08T05:28:15.329Z,12.99
2022-08-08T05:29:15.324Z,13.08
2022-08-08T05:30:15.337Z,13.16
2022-08-08T05:32:02.503Z,13.25
2022-08-08T05:32:15.296Z,13.34
2022-08-08T05:33:16.823Z,13.42
2022-08-08T05:34:15.276Z,13.50
2022-08-08T05:35:15.247Z,13.58
2022-08-08T05:36:25.452Z,13.65
2022-08-08T05:37:17.283Z,13.72
2022-08-08T05:38:30.775Z,13.79
2022-08-08T05:39:15.234Z,13.86
2022-08-08T05:40:16.501Z,13.92
2022-08-08T05:41:15.165Z,14.00
2022-08-08T05:42:15.165Z,14.09
2022-08-08T05:43:39.920Z,14.19
2022-08-08T05:44:15.138Z,14.28
2022-08-08T05:45:25.566Z,14.36
2022-08-08T05:46:15.091Z,14.45
2022-08-08T05:47:15.075Z,14.54
2022-08-08T05:48:15.109Z,14.61
2022-08-08T05:49:15.705Z,14.66
2022-08-08T05:50:15.050Z,14.72
2022-08-08T05:51:16.188Z,14.79
2022-08-08T05:52:15.033Z,14.84
2022-08-08T05:53:53.660Z,14.88
2022-08-08T05:54:28.245Z,14.92
2022-08-08T05:55:14.972Z,14.97
2022-08-08T05:56:15.585Z,15.02
2022-08-08T05:57:15.235Z,15.06
2022-08-08T05:58:17.941Z,15.12
2022-08-08T05:59:14.937Z,15.17
2022-08-08T06:00:22.450Z,15.21
2022-08-08T06:01:14.895Z,15.25
2022-08-08T06:02:14.883Z,15.29
2022-08-08T06:03:24.764Z,15.34
2022-08-08T06:04:23.496Z,15.39
2022-08-08T06:05:34.169Z,15.45
2022-08-08T06:06:17.965Z,15.51
2022-08-08T06:07:14.815Z,15.56
2022-08-08T06:08:33.458Z,15.62
2022-08-08T06:09:41.908Z,15.69
2022-08-08T06:10:24.734Z,15.77
2022-08-08T06:11:16.709Z,15.85
2022-08-08T06:12:18.606Z,15.93
2022-08-08T06:13:15.902Z,16.00
2022-08-08T06:14:17.801Z,16.07
2022-08-08T06:15:16.121Z,16.14
2022-08-08T06:16:14.697Z,16.21
2022-08-08T06:17:19.220Z,16.27
2022-08-08T06:18:20.368Z,16.33
2022-08-08T06:19:16.564Z,16.39
2022-08-08T06:20:16.329Z,16.45
2022-08-08T06:21:28.627Z,16.50
2022-08-08T06:23:14.610Z,16.64
2022-08-08T06:24:22.992Z,16.72
2022-08-08T06:25:14.608Z,16.81
2022-08-08T06:26:38.226Z,16.89
2022-08-08T06:27:14.573Z,16.95
2022-08-08T06:28:14.538Z,17.01
2022-08-08T06:29:49.362Z,17.06
2022-08-08T06:30:19.906Z,17.13
2022-08-08T06:31:15.448Z,17.18
2022-08-08T06:32:15.208Z,17.21
2022-08-08T06:33:15.229Z,17.24
2022-08-08T06:34:25.760Z,17.28
2022-08-08T06:36:08.636Z,17.33
2022-08-08T06:36:14.495Z,17.37
2022-08-08T06:37:25.195Z,17.43
2022-08-08T06:38:14.968Z,17.48
2022-08-08T06:39:14.463Z,17.53
2022-08-08T06:40:16.489Z,17.56
2022-08-08T06:41:15.217Z,17.61
2022-08-08T06:42:14.369Z,17.65
2022-08-08T06:43:14.388Z,17.68
2022-08-08T06:44:18.475Z,17.69
2022-08-08T06:45:14.333Z,17.72
2022-08-08T06:46:14.332Z,17.77
2022-08-08T06:47:14.308Z,17.82
2022-08-08T06:48:14.298Z,17.87
2022-08-08T06:49:14.346Z,17.93
2022-08-08T06:50:17.512Z,17.98
2022-08-08T06:51:14.252Z,18.03
2022-08-08T06:52:15.894Z,18.08
2022-08-08T06:53:20.171Z,18.14
2022-08-08T06:54:14.216Z,18.20
2022-08-08T06:55:14.202Z,18.27
2022-08-08T06:56:16.526Z,18.34
2022-08-08T06:57:22.835Z,18.40
2022-08-08T06:58:14.175Z,18.45
2022-08-08T06:59:14.144Z,18.52
2022-08-08T07:00:14.146Z,18.60
2022-08-08T07:02:17.549Z,18.67
2022-08-08T07:02:32.429Z,18.71
2022-08-08T07:03:19.521Z,18.74
2022-08-08T07:04:39.645Z,18.78
2022-08-08T07:05:20.331Z,18.82
2022-08-08T07:06:14.059Z,18.86
2022-08-08T07:07:14.041Z,18.90
2022-08-08T07:08:16.493Z,18.95
2022-08-08T07:09:15.358Z,19.01
2022-08-08T07:10:14.007Z,19.08
2022-08-08T07:11:22.452Z,19.16
2022-08-08T07:12:13.975Z,19.22
2022-08-08T07:13:13.983Z,19.27
2022-08-08T07:14:13.993Z,19.32
2022-08-08T07:15:23.474Z,19.36
2022-08-08T07:16:13.934Z,19.40
2022-08-08T07:17:14.342Z,19.46
2022-08-08T07:18:35.954Z,19.53
2022-08-08T07:19:13.893Z,19.61
2022-08-08T07:20:13.868Z,19.69
2022-08-08T07:21:19.126Z,19.74
2022-08-08T07:22:18.796Z,19.78
2022-08-08T07:23:13.890Z,19.81
2022-08-08T07:24:13.893Z,19.83
2022-08-08T07:25:14.422Z,19.86
2022-08-08T07:26:13.792Z,19.90
2022-08-08T07:27:16.415Z,19.92
2022-08-08T07:28:13.912Z,19.96
2022-08-08T07:29:58.869Z,20.00
2022-08-08T07:30:19.646Z,20.05
2022-08-08T07:31:13.861Z,20.08
2022-08-08T07:32:15.782Z,20.13
2022-08-08T07:33:17.434Z,20.19
2022-08-08T07:34:19.991Z,20.23
2022-08-08T07:35:14.060Z,20.28
2022-08-08T07:36:15.090Z,20.36
2022-08-08T07:37:13.720Z,20.46
2022-08-08T07:38:18.348Z,20.56
2022-08-08T07:39:13.654Z,20.67
2022-08-08T07:40:29.148Z,20.78
2022-08-08T07:41:23.579Z,20.88
2022-08-08T07:42:13.605Z,20.97
2022-08-08T07:43:13.601Z,21.03
2022-08-08T07:44:33.521Z,21.07
2022-08-08T07:45:13.539Z,21.10
2022-08-08T07:46:23.755Z,21.14
2022-08-08T07:47:13.525Z,21.17
2022-08-08T07:48:13.507Z,21.20
2022-08-08T07:49:13.474Z,21.23
2022-08-08T07:50:13.482Z,21.27
2022-08-08T07:51:23.402Z,21.33
2022-08-08T07:52:22.928Z,21.32
2022-08-08T07:53:13.460Z,21.29
2022-08-08T07:54:24.102Z,21.31
2022-08-08T07:55:13.408Z,21.38
2022-08-08T07:56:13.394Z,21.43
2022-08-08T07:57:17.069Z,21.47
2022-08-08T07:58:13.368Z,21.52
2022-08-08T07:59:14.292Z,21.61
2022-08-08T08:00:16.483Z,21.75
2022-08-08T08:01:13.382Z,21.94
2022-08-08T08:02:34.428Z,22.14
2022-08-08T08:03:23.339Z,22.35
2022-08-08T08:04:13.567Z,22.53
2022-08-08T08:05:14.486Z,22.69
2022-08-08T08:06:14.131Z,22.78
2022-08-08T08:07:13.227Z,22.79
2022-08-08T08:08:13.252Z,22.81
2022-08-08T08:09:13.201Z,22.80
2022-08-08T08:10:13.275Z,22.73
2022-08-08T08:11:18.467Z,22.70
2022-08-08T08:12:35.250Z,22.73
2022-08-08T08:13:17.891Z,22.75
2022-08-08T08:14:15.257Z,22.69
2022-08-08T08:15:15.254Z,22.60
2022-08-08T08:16:13.135Z,22.58
2022-08-08T08:17:14.019Z,22.65
2022-08-08T08:18:14.208Z,22.75
2022-08-08T08:19:15.007Z,22.88
2022-08-08T08:20:13.092Z,22.95
2022-08-08T08:21:14.512Z,22.96
2022-08-08T08:22:14.945Z,23.03
2022-08-08T08:23:13.651Z,23.24
2022-08-08T08:24:13.014Z,23.45
2022-08-08T08:25:13.036Z,23.55
2022-08-08T08:26:13.012Z,23.65
2022-08-08T08:27:12.999Z,23.78
2022-08-08T08:28:21.448Z,23.81
2022-08-08T08:29:13.834Z,23.75
2022-08-08T08:30:12.968Z,23.76
2022-08-08T08:31:12.956Z,23.89
2022-08-08T08:32:24.051Z,24.12
2022-08-08T08:33:12.896Z,24.38
2022-08-08T08:34:12.936Z,24.61
2022-08-08T08:35:13.295Z,24.77
2022-08-08T08:36:20.329Z,24.86
2022-08-08T08:37:15.580Z,24.93
2022-08-08T08:38:17.950Z,24.99
2022-08-08T08:39:17.322Z,25.02
2022-08-08T08:40:13.136Z,25.04
2022-08-08T08:41:13.219Z,25.14
2022-08-08T08:42:13.378Z,25.41
2022-08-08T08:43:15.428Z,25.78
2022-08-08T08:44:14.049Z,26.17
2022-08-08T08:45:22.684Z,26.45
2022-08-08T08:46:17.532Z,26.61
2022-08-08T08:47:12.764Z,26.79
2022-08-08T08:48:19.305Z,26.97
2022-08-08T08:49:12.727Z,27.00
2022-08-08T08:50:17.318Z,27.02
2022-08-08T08:51:12.691Z,27.00
2022-08-08T08:52:12.717Z,26.86
2022-08-08T08:53:27.872Z,26.60
2022-08-08T08:54:12.693Z,26.46
2022-08-08T08:55:12.725Z,26.58
2022-08-08T08:56:12.625Z,26.75
2022-08-08T08:57:17.322Z,26.88
2022-08-08T08:58:12.653Z,26.94
2022-08-08T08:59:15.696Z,26.98
2022-08-08T09:00:17.133Z,27.02
2022-08-08T09:01:13.393Z,26.99
2022-08-08T09:02:12.568Z,26.88
2022-08-08T09:03:12.587Z,26.84
2022-08-08T09:04:32.049Z,26.87
2022-08-08T09:05:13.985Z,26.71
2022-08-08T09:06:26.828Z,26.44
2022-08-08T09:07:12.762Z,26.28
2022-08-08T09:08:20.595Z,26.31
2022-08-08T09:09:26.634Z,26.51
2022-08-08T09:10:17.023Z,26.75
2022-08-08T09:11:12.498Z,27.00
2022-08-08T09:12:12.419Z,27.27
2022-08-08T09:13:12.402Z,27.53
2022-08-08T09:14:12.417Z,27.74
2022-08-08T09:15:12.388Z,27.87
2022-08-08T09:16:12.415Z,27.86
2022-08-08T09:17:17.929Z,27.72
2022-08-08T09:18:13.094Z,27.67
2022-08-08T09:19:12.381Z,27.80
2022-08-08T09:21:58.840Z,27.89
2022-08-08T09:22:07.754Z,27.84
2022-08-08T09:22:13.199Z,27.76
2022-08-08T09:23:17.508Z,27.77
2022-08-08T09:24:13.469Z,27.73
2022-08-08T09:25:13.150Z,27.69
2022-08-08T09:26:13.162Z,27.83
2022-08-08T09:27:20.297Z,28.10
2022-08-08T09:28:13.148Z,28.37
2022-08-08T09:29:13.091Z,28.50
2022-08-08T09:30:14.704Z,28.67
2022-08-08T09:31:13.356Z,29.00
2022-08-08T09:32:14.340Z,29.30
2022-08-08T09:34:14.911Z,29.52
2022-08-08T09:34:36.448Z,29.55
2022-08-08T09:35:16.064Z,29.27
2022-08-08T09:36:13.072Z,28.84
2022-08-08T09:37:59.074Z,28.51
2022-08-08T09:38:17.984Z,28.23
2022-08-08T09:39:19.060Z,28.03
2022-08-08T09:40:13.041Z,28.13
2022-08-08T09:41:12.996Z,28.52
2022-08-08T09:42:21.361Z,28.98
2022-08-08T09:43:16.661Z,29.28
2022-08-08T09:44:18.804Z,29.29
2022-08-08T09:45:20.708Z,29.10
2022-08-08T09:46:16.878Z,28.83
2022-08-08T09:47:25.948Z,28.55
2022-08-08T09:48:21.868Z,28.34
2022-08-08T09:49:41.266Z,28.32
2022-08-08T09:50:14.044Z,28.57
2022-08-08T09:51:12.869Z,28.86
2022-08-08T09:52:16.066Z,28.89
2022-08-08T09:53:23.625Z,28.70
2022-08-08T09:54:19.770Z,28.52
2022-08-08T09:55:17.565Z,28.50
2022-08-08T09:56:21.728Z,28.69
2022-08-08T09:57:17.061Z,29.00
2022-08-08T09:58:16.518Z,29.32
2022-08-08T09:59:40.337Z,29.59
2022-08-08T10:01:14.472Z,29.89
2022-08-08T10:02:14.707Z,30.07
2022-08-08T10:03:12.730Z,30.02
2022-08-08T10:04:12.716Z,29.68
2022-08-08T10:05:15.110Z,29.38
2022-08-08T10:06:12.678Z,29.28
2022-08-08T10:07:13.935Z,29.10
2022-08-08T10:08:12.650Z,28.65
2022-08-08T10:09:13.386Z,28.12
2022-08-08T10:10:12.688Z,27.81
2022-08-08T10:12:28.083Z,27.75
2022-08-08T10:12:53.334Z,27.77
2022-08-08T10:13:14.818Z,28.00
2022-08-08T10:14:28.159Z,28.26
2022-08-08T10:15:17.511Z,28.18
2022-08-08T10:16:12.598Z,28.00
2022-08-08T10:17:56.062Z,28.02
2022-08-08T10:18:17.624Z,27.90
2022-08-08T10:19:12.562Z,27.63
2022-08-08T10:20:12.588Z,27.41
2022-08-08T10:21:22.585Z,27.43
2022-08-08T10:22:12.519Z,27.66
2022-08-08T10:23:13.195Z,28.07
2022-08-08T10:24:29.697Z,28.21
2022-08-08T10:25:15.817Z,27.91
2022-08-08T10:26:29.754Z,27.53
2022-08-08T10:27:13.090Z,27.47
2022-08-08T10:28:14.975Z,27.85
2022-08-08T10:29:12.431Z,28.50
2022-08-08T10:30:16.208Z,29.23
2022-08-08T10:31:12.403Z,29.59
2022-08-08T10:32:12.402Z,29.75
2022-08-08T10:33:12.489Z,29.98
2022-08-08T10:34:21.018Z,30.20
2022-08-08T10:36:06.279Z,30.27
2022-08-08T10:36:22.382Z,30.16
2022-08-08T10:37:12.357Z,30.04
2022-08-08T10:38:13.741Z,29.78
2022-08-08T10:39:14.057Z,29.20
2022-08-08T10:40:12.492Z,28.78
2022-08-08T10:41:12.288Z,28.83
2022-08-08T10:42:14.897Z,28.98
2022-08-08T10:43:12.301Z,29.05
2022-08-08T10:44:12.278Z,28.93
2022-08-08T10:45:12.273Z,28.85
2022-08-08T10:46:29.437Z,29.14
2022-08-08T10:47:12.250Z,29.55
2022-08-08T10:48:12.243Z,29.79
2022-08-08T10:49:12.223Z,29.87
2022-08-08T10:50:15.746Z,29.84
2022-08-08T10:51:12.211Z,29.61
2022-08-08T10:52:12.178Z,29.32
2022-08-08T10:53:12.614Z,29.17
2022-08-08T10:54:12.174Z,29.07
2022-08-08T10:55:12.143Z,28.84
2022-08-08T10:56:27.852Z,28.55
2022-08-08T10:57:12.140Z,28.62
2022-08-08T10:58:12.131Z,29.02
2022-08-08T10:59:14.645Z,29.43
2022-08-08T11:00:12.270Z,29.71
2022-08-08T11:01:12.599Z,29.73
2022-08-08T11:02:12.124Z,29.48
2022-08-08T11:03:12.065Z,28.98
2022-08-08T11:04:12.157Z,28.18
2022-08-08T11:05:14.914Z,27.29
2022-08-08T11:06:12.575Z,26.62
2022-08-08T11:07:40.702Z,26.26
2022-08-08T11:08:53.545Z,26.16
2022-08-08T11:09:19.223Z,26.15
2022-08-08T11:10:11.989Z,26.17
2022-08-08T11:12:00.087Z,26.21
2022-08-08T11:12:13.601Z,26.27
2022-08-08T11:13:29.511Z,26.53
2022-08-08T11:14:12.455Z,27.00
2022-08-08T11:15:11.929Z,27.41
2022-08-08T11:16:11.886Z,27.76
2022-08-08T11:17:15.720Z,28.05
2022-08-08T11:18:11.864Z,27.90
2022-08-08T11:19:11.861Z,27.47
2022-08-08T11:20:12.773Z,27.02
2022-08-08T11:21:20.436Z,26.66
2022-08-08T11:22:11.827Z,26.46
2022-08-08T11:23:11.831Z,26.41
2022-08-08T11:24:11.791Z,26.67
2022-08-08T11:25:13.768Z,27.27
2022-08-08T11:26:11.771Z,27.72
2022-08-08T11:27:19.906Z,27.68
2022-08-08T11:28:11.773Z,27.42
2022-08-08T11:29:11.743Z,27.22
2022-08-08T11:30:20.017Z,27.09
2022-08-08T11:31:11.738Z,27.10
2022-08-08T11:32:13.334Z,27.26
2022-08-08T11:33:12.429Z,27.56
2022-08-08T11:34:24.417Z,27.88
2022-08-08T11:35:29.413Z,28.20
2022-08-08T11:36:13.419Z,28.50
2022-08-08T11:37:15.137Z,28.73
2022-08-08T11:38:39.130Z,28.88
2022-08-08T11:39:13.003Z,29.01
2022-08-08T11:40:11.650Z,29.16
2022-08-08T11:41:11.624Z,29.23
2022-08-08T11:42:11.606Z,29.10
2022-08-08T11:43:11.603Z,28.83
2022-08-08T11:44:11.587Z,28.56
2022-08-08T11:45:11.571Z,28.27
2022-08-08T11:46:14.305Z,28.06
2022-08-08T11:47:13.012Z,28.01
2022-08-08T11:48:11.547Z,27.91
2022-08-08T11:49:11.539Z,27.98
2022-08-08T11:50:11.515Z,28.44
2022-08-08T11:51:30.487Z,28.89
2022-08-08T11:52:18.734Z,29.31
2022-08-08T11:53:11.468Z,29.83
2022-08-08T11:54:31.903Z,30.45
2022-08-08T11:55:11.478Z,30.99
2022-08-08T11:56:11.442Z,30.92
2022-08-08T11:57:16.646Z,30.37
2022-08-08T11:58:14.839Z,29.75
2022-08-08T11:59:11.410Z,29.18
2022-08-08T12:00:11.401Z,28.76
2022-08-08T12:01:16.246Z,28.30
2022-08-08T12:02:31.033Z,27.93
2022-08-08T12:03:11.419Z,27.87
2022-08-08T12:04:11.337Z,27.79
2022-08-08T12:05:12.204Z,27.62
2022-08-08T12:06:11.327Z,27.46
2022-08-08T12:07:16.627Z,27.24
2022-08-08T12:08:11.428Z,27.12
2022-08-08T12:09:16.894Z,27.18
2022-08-08T12:10:11.356Z,27.17
2022-08-08T12:11:11.273Z,27.06
2022-08-08T12:12:11.245Z,27.04
2022-08-08T12:13:11.266Z,27.43
2022-08-08T12:14:11.871Z,28.13
2022-08-08T12:15:11.240Z,28.44
2022-08-08T12:16:11.254Z,28.41
2022-08-08T12:17:11.248Z,28.22
2022-08-08T12:18:11.262Z,28.05
2022-08-08T12:19:11.228Z,28.20
2022-08-08T12:20:14.716Z,28.70
2022-08-08T12:21:11.357Z,29.29
2022-08-08T12:22:13.280Z,29.59
2022-08-08T12:23:14.053Z,29.54
2022-08-08T12:24:11.192Z,29.25
2022-08-08T12:25:11.143Z,28.99
2022-08-08T12:26:16.768Z,28.83
2022-08-08T12:27:11.122Z,28.74
2022-08-08T12:28:15.272Z,28.75
2022-08-08T12:29:11.063Z,28.88
2022-08-08T12:30:18.382Z,29.23
2022-08-08T12:31:11.078Z,29.65
2022-08-08T12:32:13.574Z,29.97
2022-08-08T12:33:11.029Z,30.36
2022-08-08T12:34:11.006Z,30.73
2022-08-08T12:35:18.262Z,30.90
2022-08-08T12:36:10.990Z,30.96
2022-08-08T12:37:11.371Z,31.08
2022-08-08T12:38:10.958Z,31.41
2022-08-08T12:39:11.017Z,31.71
2022-08-08T12:40:11.018Z,32.06
2022-08-08T12:41:33.839Z,32.41
2022-08-08T12:42:20.775Z,32.51
2022-08-08T12:43:10.927Z,32.50
2022-08-08T12:44:10.908Z,32.55
2022-08-08T12:45:54.612Z,32.68
2022-08-08T12:46:10.901Z,32.56
2022-08-08T12:47:13.118Z,32.33
2022-08-08T12:48:37.467Z,32.21
2022-08-08T12:49:43.635Z,31.91
2022-08-08T12:50:10.837Z,31.51
2022-08-08T12:51:11.723Z,31.31
2022-08-08T12:52:14.272Z,31.44
2022-08-08T12:53:10.910Z,31.66
2022-08-08T12:54:24.312Z,31.69
2022-08-08T12:55:14.366Z,31.63
2022-08-08T12:56:17.986Z,31.73
2022-08-08T12:57:10.788Z,31.74
2022-08-08T12:58:15.937Z,31.79
2022-08-08T12:59:10.771Z,32.02